createdAt,value
2018-04-15T00:00:56.195Z,10.50
2018-04-15T00:03:23.739Z,10.50
2018-04-15T00:05:51.275Z,10.50
2018-04-15T00:08:18.782Z,10.40
2018-04-15T00:10:46.312Z,10.40
2018-04-15T00:13:13.823Z,10.40
2018-04-15T00:15:41.363Z,10.40
2018-04-15T00:18:08.909Z,10.30
2018-04-15T00:20:37.210Z,10.30
2018-04-15T00:23:04.757Z,10.30
2018-04-15T00:25:32.339Z,10.40
2018-04-15T00:27:59.874Z,10.40
2018-04-15T00:30:27.387Z,10.00
2018-04-15T00:32:54.902Z,10.10
2018-04-15T00:35:22.409Z,10.20
2018-04-15T00:37:49.940Z,10.20
2018-04-15T00:40:17.491Z,10.30
2018-04-15T00:42:45.055Z,10.30
2018-04-15T00:45:12.571Z,10.20
2018-04-15T00:47:40.886Z,10.20
2018-04-15T00:50:08.400Z,10.20
2018-04-15T00:52:35.926Z,10.10
2018-04-15T00:55:03.431Z,10.20
2018-04-15T00:57:31.729Z,10.20
2018-04-15T00:59:59.246Z,10.20
2018-04-15T01:02:26.748Z,10.10
2018-04-15T01:04:54.286Z,9.80
2018-04-15T01:07:21.820Z,9.80
2018-04-15T01:09:49.370Z,9.90
2018-04-15T01:12:16.915Z,10.00
2018-04-15T01:14:44.434Z,10.00
2018-04-15T01:17:11.931Z,9.90
2018-04-15T01:19:39.427Z,9.80
2018-04-15T01:22:07.732Z,9.90
2018-04-15T01:24:35.233Z,9.90
2018-04-15T01:27:02.762Z,9.90
2018-04-15T01:29:30.270Z,9.90
2018-04-15T01:31:58.579Z,10.00
2018-04-15T01:34:26.124Z,10.00
2018-04-15T01:36:53.671Z,10.00
2018-04-15T01:39:21.199Z,10.10
2018-04-15T01:41:48.707Z,10.20
2018-04-15T01:44:16.243Z,10.10
2018-04-15T01:46:44.514Z,9.90
2018-04-15T01:49:12.013Z,10.00
2018-04-15T01:51:39.550Z,10.00
2018-04-15T01:54:07.092Z,10.10
2018-04-15T01:56:34.610Z,10.00
2018-04-15T01:59:02.130Z,10.00
2018-04-15T02:01:29.636Z,10.00
2018-04-15T02:03:57.192Z,10.10
2018-04-15T02:06:24.719Z,10.10
2018-04-15T02:08:52.224Z,10.10
2018-04-15T02:11:19.759Z,10.10
2018-04-15T02:13:47.315Z,10.00
2018-04-15T02:16:14.823Z,9.90
2018-04-15T02:18:42.356Z,9.90
2018-04-15T02:21:10.666Z,9.90
2018-04-15T02:23:38.216Z,9.90
2018-04-15T02:26:05.751Z,10.00
2018-04-15T02:28:33.271Z,9.80
2018-04-15T02:31:00.823Z,9.80
2018-04-15T02:33:28.363Z,9.80
2018-04-15T02:35:55.910Z,9.90
2018-04-15T02:38:24.217Z,10.00
2018-04-15T02:40:51.807Z,10.00
2018-04-15T02:43:19.315Z,9.90
2018-04-15T02:45:46.829Z,9.80
2018-04-15T02:48:14.356Z,9.70
2018-04-15T02:50:41.881Z,9.70
2018-04-15T02:53:10.189Z,9.80
2018-04-15T02:55:37.718Z,9.70
2018-04-15T02:58:05.232Z,9.70
2018-04-15T03:00:32.737Z,9.60
2018-04-15T03:03:00.249Z,9.60
2018-04-15T03:05:27.751Z,9.70
2018-04-15T03:07:55.287Z,9.80
2018-04-15T03:10:23.566Z,9.80
2018-04-15T03:12:51.867Z,9.80
2018-04-15T03:15:19.374Z,9.80
2018-04-15T03:17:46.877Z,9.80
2018-04-15T03:20:14.415Z,9.90
2018-04-15T03:22:42.722Z,9.80
2018-04-15T03:25:10.221Z,9.80
2018-04-15T03:27:37.731Z,9.50
2018-04-15T03:30:05.260Z,9.60
2018-04-15T03:32:32.761Z,9.60
2018-04-15T03:35:00.260Z,9.70
2018-04-15T03:37:27.790Z,9.60
2018-04-15T03:39:55.331Z,9.70
2018-04-15T03:42:22.841Z,9.80
2018-04-15T03:44:50.378Z,9.80
2018-04-15T03:47:17.919Z,9.80
2018-04-15T03:49:45.456Z,9.80
2018-04-15T03:52:12.964Z,9.80
2018-04-15T03:54:40.630Z,9.80
2018-04-15T03:57:08.171Z,9.70
2018-04-15T03:59:35.679Z,9.70
2018-04-15T04:02:03.184Z,9.50
2018-04-15T04:04:30.691Z,9.40
2018-04-15T04:06:58.987Z,9.60
2018-04-15T04:09:26.485Z,9.50
2018-04-15T04:11:54.010Z,9.70
2018-04-15T04:14:21.539Z,9.70
2018-04-15T04:16:49.855Z,9.70
2018-04-15T04:19:29.198Z,9.70
2018-04-15T04:22:08.499Z,9.80
2018-04-15T04:24:47.946Z,9.80
2018-04-15T04:27:15.450Z,9.70
2018-04-15T04:29:42.956Z,9.70
2018-04-15T04:32:10.458Z,9.60
2018-04-15T04:34:37.966Z,9.30
2018-04-15T04:37:05.471Z,9.20
2018-04-15T04:39:33.003Z,9.20
2018-04-15T04:42:00.525Z,9.10
2018-04-15T04:44:28.019Z,9.20
2018-04-15T04:46:55.555Z,9.20
2018-04-15T04:49:23.082Z,9.10
2018-04-15T04:51:50.592Z,9.00
2018-04-15T04:54:18.110Z,8.80
2018-04-15T04:56:45.650Z,9.00
2018-04-15T04:59:13.186Z,9.20
2018-04-15T05:01:40.747Z,9.30
2018-04-15T05:04:08.283Z,9.30
2018-04-15T05:06:35.821Z,9.20
2018-04-15T05:09:03.338Z,9.20
2018-04-15T05:11:30.829Z,9.20
2018-04-15T05:13:58.345Z,9.10
2018-04-15T05:16:25.894Z,9.20
2018-04-15T05:18:53.426Z,9.20
2018-04-15T05:21:20.930Z,9.20
2018-04-15T05:23:48.463Z,9.30
2018-04-15T05:26:15.972Z,9.30
2018-04-15T05:28:44.287Z,9.30
2018-04-15T05:31:11.844Z,9.30
2018-04-15T05:33:39.347Z,9.30
2018-04-15T05:36:06.875Z,9.20
2018-04-15T05:38:34.385Z,9.40
2018-04-15T05:41:02.672Z,9.50
2018-04-15T05:43:30.955Z,9.50
2018-04-15T05:45:59.271Z,9.40
2018-04-15T05:48:26.805Z,9.40
2018-04-15T05:50:54.394Z,9.50
2018-04-15T05:53:21.875Z,9.50
2018-04-15T05:55:49.410Z,9.50
2018-04-15T05:58:16.928Z,9.60
2018-04-15T06:00:44.431Z,9.70
2018-04-15T06:03:11.923Z,9.60
2018-04-15T06:05:40.228Z,9.60
2018-04-15T06:08:07.748Z,9.60
2018-04-15T06:10:35.279Z,9.60
2018-04-15T06:13:02.814Z,9.60
2018-04-15T06:15:30.320Z,9.50
2018-04-15T06:17:57.839Z,9.60
2018-04-15T06:20:25.354Z,9.60
2018-04-15T06:22:53.654Z,9.60
2018-04-15T06:25:21.159Z,9.60
2018-04-15T06:27:48.690Z,9.60
2018-04-15T06:30:16.222Z,9.60
2018-04-15T06:32:43.769Z,9.70
2018-04-15T06:35:11.308Z,9.80
2018-04-15T06:37:38.839Z,9.90
2018-04-15T06:40:06.352Z,9.80
2018-04-15T06:42:33.903Z,9.90
2018-04-15T06:45:02.209Z,10.00
2018-04-15T06:47:29.735Z,10.10
2018-04-15T06:49:57.291Z,10.10
2018-04-15T06:52:25.594Z,10.30
2018-04-15T06:54:53.149Z,10.30
2018-04-15T06:57:20.682Z,10.40
2018-04-15T06:59:49.129Z,10.50
2018-04-15T07:02:16.675Z,10.50
2018-04-15T07:04:44.266Z,10.70
2018-04-15T07:07:11.778Z,10.80
2018-04-15T07:09:39.349Z,11.00
2018-04-15T07:12:06.859Z,10.90
2018-04-15T07:14:35.172Z,11.00
2018-04-15T07:17:02.720Z,11.00
2018-04-15T07:19:30.233Z,11.20
2018-04-15T07:21:57.781Z,11.00
2018-04-15T07:24:25.319Z,11.00
2018-04-15T07:26:52.833Z,11.40
2018-04-15T07:29:20.404Z,11.40
2018-04-15T07:31:47.931Z,11.50
2018-04-15T07:34:15.471Z,11.60
2018-04-15T07:36:44.496Z,12.20
2018-04-15T07:39:12.780Z,12.20
2018-04-15T07:41:40.317Z,12.20
2018-04-15T07:44:07.827Z,12.20
2018-04-15T07:46:35.371Z,12.10
2018-04-15T07:49:02.958Z,12.50
2018-04-15T07:51:30.521Z,12.60
2018-04-15T07:53:58.079Z,12.70
2018-04-15T07:56:25.645Z,12.90
2018-04-15T07:58:53.179Z,13.00
2018-04-15T08:01:20.697Z,12.80
2018-04-15T08:03:48.979Z,13.10
2018-04-15T08:06:17.264Z,13.20
2018-04-15T08:08:44.802Z,13.20
2018-04-15T08:11:12.314Z,13.40
2018-04-15T08:13:39.835Z,13.50
2018-04-15T08:16:07.351Z,13.60
2018-04-15T08:18:34.904Z,13.60
2018-04-15T08:21:02.455Z,13.60
2018-04-15T08:23:30.011Z,13.70
2018-04-15T08:25:57.551Z,13.80
2018-04-15T08:28:25.182Z,14.00
2018-04-15T08:30:53.518Z,14.20
2018-04-15T08:33:21.094Z,14.10
2018-04-15T08:35:48.627Z,14.30
2018-04-15T08:38:16.174Z,14.20
2018-04-15T08:40:43.730Z,14.70
2018-04-15T08:43:11.264Z,14.60
2018-04-15T08:45:38.785Z,14.90
2018-04-15T08:48:06.324Z,15.00
2018-04-15T08:50:33.865Z,15.10
2018-04-15T08:53:01.425Z,15.10
2018-04-15T08:55:28.992Z,15.10
2018-04-15T08:57:56.502Z,15.10
2018-04-15T09:00:24.880Z,15.20
2018-04-15T09:02:52.448Z,15.20
2018-04-15T09:05:19.983Z,15.10
2018-04-15T09:07:48.312Z,15.10
2018-04-15T09:10:15.831Z,15.10
2018-04-15T09:12:44.267Z,15.30
2018-04-15T09:15:11.829Z,15.30
2018-04-15T09:17:39.381Z,15.40
2018-04-15T09:20:06.936Z,15.30
2018-04-15T09:22:34.450Z,15.40
2018-04-15T09:25:01.968Z,15.40
2018-04-15T09:27:29.516Z,15.60
2018-04-15T09:29:57.079Z,15.60
2018-04-15T09:32:24.727Z,15.60
2018-04-15T09:34:52.272Z,15.50
2018-04-15T09:37:19.822Z,15.40
2018-04-15T09:39:47.335Z,15.50
2018-04-15T09:42:14.925Z,15.40
2018-04-15T09:44:42.465Z,15.60
2018-04-15T09:47:10.788Z,15.60
2018-04-15T09:49:38.310Z,15.60
2018-04-15T09:52:05.834Z,15.50
2018-04-15T09:54:33.456Z,15.60
2018-04-15T09:57:01.011Z,15.70
2018-04-15T09:59:28.628Z,15.70
2018-04-15T10:01:56.179Z,15.90
2018-04-15T10:04:25.221Z,16.30
2018-04-15T10:06:52.754Z,16.30
2018-04-15T10:09:20.455Z,16.40
2018-04-15T10:11:47.979Z,16.40
2018-04-15T10:14:16.268Z,16.60
2018-04-15T10:16:43.781Z,16.50
2018-04-15T10:19:11.364Z,16.50
2018-04-15T10:21:39.716Z,16.50
2018-04-15T10:24:07.353Z,16.50
2018-04-15T10:26:34.815Z,16.40
2018-04-15T10:29:02.342Z,16.40
2018-04-15T10:31:29.892Z,16.30
2018-04-15T10:33:58.173Z,16.50
2018-04-15T10:36:25.725Z,16.50
2018-04-15T10:38:53.296Z,16.50
2018-04-15T10:41:20.845Z,16.50
2018-04-15T10:43:49.134Z,16.40
2018-04-15T10:46:16.679Z,16.40
2018-04-15T10:48:44.996Z,16.50
2018-04-15T10:51:12.575Z,16.50
2018-04-15T10:53:40.133Z,16.50
2018-04-15T10:56:07.698Z,16.90
2018-04-15T10:58:35.259Z,17.00
2018-04-15T11:01:02.775Z,16.90
2018-04-15T11:03:30.342Z,17.20
2018-04-15T11:05:58.587Z,17.80
2018-04-15T11:08:26.870Z,17.90
2018-04-15T11:10:55.155Z,18.20
2018-04-15T11:13:22.704Z,18.20
2018-04-15T11:15:50.330Z,18.00
2018-04-15T11:18:17.846Z,17.80
2018-04-15T11:20:45.372Z,17.80
2018-04-15T11:23:13.679Z,18.00
2018-04-15T11:25:41.232Z,18.00
2018-04-15T11:28:08.755Z,18.30
2018-04-15T11:30:36.297Z,18.30
2018-04-15T11:33:03.861Z,18.60
2018-04-15T11:35:32.160Z,18.70
2018-04-15T11:38:00.490Z,18.60
2018-04-15T11:40:28.024Z,18.60
2018-04-15T11:42:55.596Z,18.30
2018-04-15T11:45:23.120Z,18.10
2018-04-15T11:47:50.672Z,18.80
2018-04-15T11:50:18.971Z,19.60
2018-04-15T11:52:46.507Z,19.60
2018-04-15T11:55:14.027Z,19.60
2018-04-15T11:57:41.546Z,19.90
2018-04-15T12:00:09.064Z,19.90
2018-04-15T12:02:38.125Z,19.20
2018-04-15T12:05:05.638Z,19.20
2018-04-15T12:07:33.927Z,19.40
2018-04-15T12:10:01.448Z,19.40
2018-04-15T12:12:28.982Z,19.20
2018-04-15T12:14:56.490Z,19.60
2018-04-15T12:17:24.780Z,20.50
2018-04-15T12:19:52.293Z,20.40
2018-04-15T12:22:19.831Z,20.20
2018-04-15T12:24:47.363Z,20.70
2018-04-15T12:27:14.878Z,20.10
2018-04-15T12:29:42.397Z,20.30
2018-04-15T12:32:09.914Z,20.90
2018-04-15T12:34:38.225Z,20.40
2018-04-15T12:37:05.811Z,20.30
2018-04-15T12:39:33.349Z,20.20
2018-04-15T12:42:00.913Z,20.60
2018-04-15T12:44:28.436Z,20.00
2018-04-15T12:46:56.745Z,19.70
2018-04-15T12:49:24.315Z,19.70
2018-04-15T12:51:51.904Z,19.70
2018-04-15T12:54:19.482Z,20.20
2018-04-15T12:56:47.038Z,20.30
2018-04-15T12:59:14.585Z,20.10
2018-04-15T13:01:42.897Z,20.50
2018-04-15T13:04:10.465Z,20.50
2018-04-15T13:06:38.019Z,20.90
2018-04-15T13:09:05.530Z,20.80
2018-04-15T13:11:33.043Z,20.50
2018-04-15T13:14:00.577Z,20.10
2018-04-15T13:16:28.107Z,19.70
2018-04-15T13:18:55.636Z,19.90
2018-04-15T13:21:23.193Z,20.10
2018-04-15T13:23:50.720Z,20.60
2018-04-15T13:26:18.271Z,20.60
2018-04-15T13:28:45.825Z,20.30
2018-04-15T13:31:13.397Z,20.40
2018-04-15T13:33:40.902Z,20.40
2018-04-15T13:36:08.467Z,20.40
2018-04-15T13:38:36.031Z,20.10
2018-04-15T13:41:03.548Z,19.90
2018-04-15T13:43:31.067Z,19.80
2018-04-15T13:45:58.584Z,19.70
2018-04-15T13:48:26.106Z,19.60
2018-04-15T13:50:53.672Z,19.60
2018-04-15T13:53:21.195Z,19.60
2018-04-15T13:55:48.713Z,19.60
2018-04-15T13:58:16.226Z,19.60
2018-04-15T14:00:44.527Z,19.80
2018-04-15T14:03:12.055Z,19.80
2018-04-15T14:05:39.630Z,19.70
2018-04-15T14:08:07.186Z,19.70
2018-04-15T14:10:34.736Z,19.70
2018-04-15T14:13:03.014Z,19.60
2018-04-15T14:15:31.287Z,19.60
2018-04-15T14:17:59.574Z,19.70
2018-04-15T14:20:27.883Z,19.70
2018-04-15T14:22:55.433Z,19.70
2018-04-15T14:25:22.987Z,19.80
2018-04-15T14:27:50.494Z,19.70
2018-04-15T14:30:18.049Z,19.70
2018-04-15T14:32:45.635Z,19.70
2018-04-15T14:35:13.152Z,19.70
2018-04-15T14:37:40.659Z,19.70
2018-04-15T14:40:08.947Z,19.80
2018-04-15T14:42:36.459Z,19.80
2018-04-15T14:45:04.074Z,19.90
2018-04-15T14:47:31.602Z,20.00
2018-04-15T14:49:59.941Z,19.80
2018-04-15T14:52:27.572Z,19.80
2018-04-15T14:54:55.127Z,19.90
2018-04-15T14:57:22.632Z,20.00
2018-04-15T14:59:50.173Z,20.00
2018-04-15T15:02:17.764Z,20.00
2018-04-15T15:04:46.067Z,19.90
2018-04-15T15:07:14.351Z,19.80
2018-04-15T15:09:42.725Z,19.90
2018-04-15T15:12:11.736Z,19.90
2018-04-15T15:14:39.244Z,19.90
2018-04-15T15:17:06.761Z,20.00
2018-04-15T15:19:34.351Z,19.90
2018-04-15T15:22:01.913Z,19.90
2018-04-15T15:24:29.473Z,19.90
2018-04-15T15:26:57.012Z,19.90
2018-04-15T15:29:24.551Z,19.80
2018-04-15T15:31:52.123Z,19.80
2018-04-15T15:34:19.650Z,19.80
2018-04-15T15:36:47.972Z,19.90
2018-04-15T15:39:15.528Z,19.90
2018-04-15T15:41:43.088Z,19.90
2018-04-15T15:44:10.649Z,19.90
2018-04-15T15:46:38.201Z,20.00
2018-04-15T15:49:05.749Z,20.10
2018-04-15T15:51:33.281Z,20.10
2018-04-15T15:54:01.580Z,19.90
2018-04-15T15:56:29.127Z,19.90
2018-04-15T15:58:56.657Z,19.80
2018-04-15T16:01:24.222Z,19.80
2018-04-15T16:03:52.543Z,19.70
2018-04-15T16:06:20.088Z,19.70
2018-04-15T16:08:47.625Z,19.70
2018-04-15T16:11:15.168Z,19.70
2018-04-15T16:13:42.706Z,19.60
2018-04-15T16:16:10.272Z,19.50
2018-04-15T16:18:37.833Z,19.50
2018-04-15T16:21:05.443Z,19.40
2018-04-15T16:23:33.007Z,19.40
2018-04-15T16:26:00.547Z,19.40
2018-04-15T16:28:28.094Z,19.40
2018-04-15T16:30:57.349Z,19.30
2018-04-15T16:33:24.867Z,19.30
2018-04-15T16:35:52.496Z,19.30
2018-04-15T16:38:20.280Z,19.30
2018-04-15T16:40:47.866Z,19.30
2018-04-15T16:43:15.412Z,19.30
2018-04-15T16:45:42.972Z,19.30
2018-04-15T16:48:10.500Z,19.30
2018-04-15T16:50:39.518Z,19.20
2018-04-15T16:53:07.827Z,19.10
2018-04-15T16:55:35.364Z,19.10
2018-04-15T16:58:02.887Z,19.10
2018-04-15T17:00:31.213Z,19.00
2018-04-15T17:02:58.774Z,19.00
2018-04-15T17:05:26.299Z,18.90
2018-04-15T17:07:54.649Z,18.90
2018-04-15T17:10:22.176Z,18.90
2018-04-15T17:12:49.728Z,18.80
2018-04-15T17:15:17.253Z,18.80
2018-04-15T17:17:44.776Z,18.80
2018-04-15T17:20:12.334Z,18.70
2018-04-15T17:22:39.899Z,18.70
2018-04-15T17:25:07.560Z,18.60
2018-04-15T17:27:35.112Z,18.50
2018-04-15T17:30:02.640Z,18.50
2018-04-15T17:32:30.167Z,18.40
2018-04-15T17:34:58.472Z,18.30
2018-04-15T17:37:26.124Z,18.30
2018-04-15T17:39:53.667Z,18.30
2018-04-15T17:42:21.200Z,18.20
2018-04-15T17:44:48.728Z,18.20
2018-04-15T17:47:16.252Z,18.20
2018-04-15T17:49:43.800Z,18.10
2018-04-15T17:52:11.347Z,18.10
2018-04-15T17:54:39.672Z,18.10
2018-04-15T17:57:07.198Z,18.00
2018-04-15T17:59:34.750Z,18.00
2018-04-15T18:02:02.300Z,17.90
2018-04-15T18:04:30.618Z,17.80
2018-04-15T18:06:58.179Z,17.80
2018-04-15T18:09:25.736Z,17.80
2018-04-15T18:11:54.052Z,17.70
2018-04-15T18:14:21.583Z,17.60
2018-04-15T18:16:49.101Z,17.50
2018-04-15T18:19:17.422Z,17.30
2018-04-15T18:21:45.030Z,17.30
2018-04-15T18:24:12.540Z,17.20
2018-04-15T18:26:40.108Z,17.20
2018-04-15T18:29:07.672Z,17.10
2018-04-15T18:31:35.240Z,17.10
2018-04-15T18:34:02.819Z,17.00
2018-04-15T18:36:30.366Z,16.90
2018-04-15T18:38:57.929Z,17.00
2018-04-15T18:41:25.524Z,16.90
2018-04-15T18:43:53.045Z,16.70
2018-04-15T18:46:20.586Z,16.60
2018-04-15T18:48:48.140Z,16.60
2018-04-15T18:51:15.704Z,16.60
2018-04-15T18:53:43.232Z,16.60
2018-04-15T18:56:10.744Z,16.60
2018-04-15T18:58:38.316Z,16.60
2018-04-15T19:01:06.640Z,16.50
2018-04-15T19:03:34.186Z,16.50
2018-04-15T19:06:01.714Z,16.40
2018-04-15T19:08:30.015Z,16.40
2018-04-15T19:10:57.573Z,16.30
2018-04-15T19:13:25.098Z,16.30
2018-04-15T19:15:53.416Z,16.10
2018-04-15T19:18:21.018Z,16.20
2018-04-15T19:20:48.508Z,16.20
2018-04-15T19:23:16.792Z,16.30
2018-04-15T19:25:44.321Z,16.30
2018-04-15T19:28:11.884Z,16.40
2018-04-15T19:30:39.444Z,16.30
2018-04-15T19:33:07.001Z,16.20
2018-04-15T19:35:34.551Z,16.10
2018-04-15T19:38:02.125Z,16.00
2018-04-15T19:40:29.709Z,16.00
2018-04-15T19:42:57.277Z,15.90
2018-04-15T19:45:24.837Z,15.90
2018-04-15T19:47:54.063Z,16.00
2018-04-15T19:50:21.605Z,16.00
2018-04-15T19:52:49.127Z,16.00
2018-04-15T19:55:17.407Z,15.90
2018-04-15T19:57:45.715Z,15.90
2018-04-15T20:00:13.261Z,15.90
2018-04-15T20:02:40.829Z,15.90
2018-04-15T20:05:08.391Z,15.80
2018-04-15T20:07:35.994Z,15.70
2018-04-15T20:10:03.538Z,15.60
2018-04-15T20:12:31.076Z,15.60
2018-04-15T20:14:58.632Z,15.50
2018-04-15T20:17:26.164Z,15.40
2018-04-15T20:19:53.690Z,15.40
2018-04-15T20:22:21.202Z,15.30
2018-04-15T20:24:48.747Z,15.50
2018-04-15T20:27:17.060Z,15.50
2018-04-15T20:29:44.602Z,15.40
2018-04-15T20:32:12.122Z,15.50
2018-04-15T20:34:39.664Z,15.50
2018-04-15T20:37:07.180Z,15.50
2018-04-15T20:39:35.464Z,15.20
2018-04-15T20:42:03.031Z,15.20
2018-04-15T20:44:30.554Z,15.20
2018-04-15T20:46:58.127Z,15.10
2018-04-15T20:49:25.713Z,15.10
2018-04-15T20:51:53.228Z,15.30
2018-04-15T20:54:20.775Z,15.30
2018-04-15T20:56:48.295Z,15.30
2018-04-15T20:59:15.846Z,15.20
2018-04-15T21:01:43.366Z,15.10
2018-04-15T21:04:10.878Z,15.00
2018-04-15T21:06:38.400Z,15.00
2018-04-15T21:09:05.921Z,15.20
2018-04-15T21:11:34.243Z,15.20
2018-04-15T21:14:01.782Z,15.10
2018-04-15T21:16:29.317Z,15.10
2018-04-15T21:18:57.601Z,14.90
2018-04-15T21:21:25.916Z,14.80
2018-04-15T21:23:53.474Z,14.80
2018-04-15T21:26:21.002Z,14.80
2018-04-15T21:28:48.571Z,14.70
2018-04-15T21:31:16.087Z,14.70
2018-04-15T21:33:43.631Z,14.70
2018-04-15T21:36:11.168Z,14.60
2018-04-15T21:38:38.694Z,14.60
2018-04-15T21:41:06.238Z,14.60
2018-04-15T21:43:33.800Z,14.60
2018-04-15T21:46:01.352Z,14.50
2018-04-15T21:48:28.925Z,14.50
2018-04-15T21:50:56.450Z,14.40
2018-04-15T21:53:25.536Z,14.50
2018-04-15T21:55:53.059Z,14.50
2018-04-15T21:58:21.015Z,14.40
2018-04-15T22:00:48.557Z,14.40
2018-04-15T22:03:16.878Z,14.30
2018-04-15T22:05:44.395Z,14.30
2018-04-15T22:08:11.941Z,14.40
2018-04-15T22:10:40.261Z,14.40
2018-04-15T22:13:08.698Z,14.40
2018-04-15T22:15:36.986Z,14.40
2018-04-15T22:18:05.279Z,14.30
2018-04-15T22:20:32.809Z,14.30
2018-04-15T22:23:00.352Z,14.20
2018-04-15T22:25:27.874Z,14.20
2018-04-15T22:27:55.397Z,14.20
2018-04-15T22:30:22.910Z,14.20
2018-04-15T22:32:50.488Z,14.30
2018-04-15T22:35:18.004Z,14.30
2018-04-15T22:37:45.563Z,14.30
2018-04-15T22:40:13.774Z,14.50
2018-04-15T22:42:41.379Z,14.50
2018-04-15T22:45:08.909Z,14.50
2018-04-15T22:47:36.447Z,14.50
2018-04-15T22:50:09.669Z,14.50
2018-04-15T22:52:37.213Z,14.60
2018-04-15T22:55:04.732Z,14.60
2018-04-15T22:57:32.281Z,14.70
2018-04-15T22:59:59.800Z,14.70
2018-04-15T23:02:28.112Z,14.70
2018-04-15T23:04:55.676Z,14.70
2018-04-15T23:07:23.220Z,14.70
2018-04-15T23:09:50.774Z,14.70
2018-04-15T23:12:18.334Z,14.70
2018-04-15T23:14:45.915Z,14.70
2018-04-15T23:17:13.464Z,14.70
2018-04-15T23:19:40.986Z,14.70
2018-04-15T23:22:08.530Z,14.70
2018-04-15T23:24:36.044Z,14.70
2018-04-15T23:27:03.572Z,14.70
2018-04-15T23:29:31.083Z,14.70
2018-04-15T23:31:58.605Z,14.70
2018-04-15T23:34:26.143Z,14.60
2018-04-15T23:36:53.685Z,14.60
2018-04-15T23:39:22.008Z,14.40
2018-04-15T23:41:49.532Z,14.40
2018-04-15T23:44:17.070Z,14.30
2018-04-15T23:46:44.587Z,14.10
2018-04-15T23:49:12.126Z,14.10
2018-04-15T23:51:39.672Z,14.00
2018-04-15T23:54:07.232Z,14.00
2018-04-15T23:56:34.766Z,13.90
2018-04-15T23:59:02.328Z,13.80
